createdAt,value
2019-03-25T00:00:52.342Z,100752.19
2019-03-25T00:03:20.948Z,100749.59
2019-03-25T00:05:49.456Z,100743.68
2019-03-25T00:08:17.909Z,100734.79
2019-03-25T00:10:46.337Z,100729.73
2019-03-25T00:13:14.757Z,100722.97
2019-03-25T00:15:43.227Z,100733.96
2019-03-25T00:18:11.680Z,100732.72
2019-03-25T00:20:40.113Z,100726.69
2019-03-25T00:23:08.544Z,100724.13
2019-03-25T00:25:36.988Z,100724.15
2019-03-25T00:28:05.453Z,100716.87
2019-03-25T00:30:33.888Z,100715.23
2019-03-25T00:33:02.320Z,100709.71
2019-03-25T00:35:30.859Z,100702.95
2019-03-25T00:37:59.323Z,100700.39
2019-03-25T00:40:27.742Z,100696.97
2019-03-25T00:42:56.780Z,100689.78
2019-03-25T00:45:25.242Z,100691.89
2019-03-25T00:47:53.703Z,100684.30
2019-03-25T00:50:22.144Z,100674.61
2019-03-25T00:52:50.602Z,100677.98
2019-03-25T00:55:19.085Z,100675.75
2019-03-25T00:57:47.565Z,100669.42
2019-03-25T01:00:16.706Z,100668.94
2019-03-25T01:02:45.109Z,100663.36
2019-03-25T01:05:14.160Z,100655.33
2019-03-25T01:07:42.579Z,100654.47
2019-03-25T01:10:11.558Z,100643.41
2019-03-25T01:12:40.000Z,100632.05
2019-03-25T01:15:09.788Z,100630.67
2019-03-25T01:17:38.233Z,100630.55
2019-03-25T01:20:08.413Z,100625.48
2019-03-25T01:22:36.881Z,100624.64
2019-03-25T01:25:07.194Z,100623.75
2019-03-25T01:27:35.631Z,100616.09
2019-03-25T01:30:06.821Z,100609.69
2019-03-25T01:32:35.770Z,100603.83
2019-03-25T01:35:06.334Z,100600.09
2019-03-25T01:37:34.798Z,100596.74
2019-03-25T01:40:04.573Z,100593.36
2019-03-25T01:42:33.057Z,100592.99
2019-03-25T01:45:01.564Z,100580.33
2019-03-25T01:47:29.988Z,100570.97
2019-03-25T01:49:58.445Z,100567.22
2019-03-25T01:52:26.879Z,100563.39
2019-03-25T01:54:55.291Z,100552.41
2019-03-25T01:57:23.754Z,100548.64
2019-03-25T01:59:52.164Z,100549.50
2019-03-25T02:02:20.721Z,100538.55
2019-03-25T02:04:49.158Z,100538.58
2019-03-25T02:07:17.580Z,100539.91
2019-03-25T02:09:46.041Z,100525.98
2019-03-25T02:12:14.471Z,100512.06
2019-03-25T02:14:42.896Z,100510.41
2019-03-25T02:17:11.424Z,100501.96
2019-03-25T02:19:39.960Z,100498.59
2019-03-25T02:22:08.387Z,100485.56
2019-03-25T02:24:36.866Z,100478.39
2019-03-25T02:27:05.283Z,100469.12
2019-03-25T02:29:33.796Z,100462.78
2019-03-25T02:32:02.270Z,100454.42
2019-03-25T02:34:30.706Z,100452.70
2019-03-25T02:36:59.189Z,100447.25
2019-03-25T02:39:27.604Z,100440.12
2019-03-25T02:41:56.028Z,100440.12
2019-03-25T02:44:24.498Z,100430.83
2019-03-25T02:46:52.972Z,100424.52
2019-03-25T02:49:21.414Z,100417.81
2019-03-25T02:51:49.867Z,100417.37
2019-03-25T02:54:18.314Z,100405.55
2019-03-25T02:56:46.857Z,100404.70
2019-03-25T02:59:15.376Z,100394.61
2019-03-25T03:01:43.818Z,100400.98
2019-03-25T03:04:12.280Z,100396.72
2019-03-25T03:06:40.818Z,100376.44
2019-03-25T03:09:10.541Z,100380.25
2019-03-25T03:11:39.358Z,100375.61
2019-03-25T03:14:07.798Z,100375.59
2019-03-25T03:16:36.388Z,100370.94
2019-03-25T03:19:04.874Z,100374.70
2019-03-25T03:21:33.404Z,100371.72
2019-03-25T03:24:01.864Z,100364.92
2019-03-25T03:26:30.327Z,100356.41
2019-03-25T03:28:58.793Z,100356.73
2019-03-25T03:31:27.300Z,100352.03
2019-03-25T03:33:55.737Z,100345.62
2019-03-25T03:36:24.224Z,100336.73
2019-03-25T03:38:52.647Z,100333.70
2019-03-25T03:41:21.135Z,100328.65
2019-03-25T03:43:49.594Z,100329.48
2019-03-25T03:46:18.059Z,100309.69
2019-03-25T03:48:46.503Z,100295.76
2019-03-25T03:51:15.008Z,100294.41
2019-03-25T03:53:43.558Z,100284.71
2019-03-25T03:56:14.156Z,100284.31
2019-03-25T03:58:43.923Z,100273.31
2019-03-25T04:01:12.398Z,100271.25
2019-03-25T04:03:40.833Z,100280.13
2019-03-25T04:06:09.260Z,100281.79
2019-03-25T04:08:37.796Z,100277.15
2019-03-25T04:11:06.970Z,100283.88
2019-03-25T04:13:35.410Z,100287.22
2019-03-25T04:16:04.084Z,100280.44
2019-03-25T04:18:32.533Z,100285.88
2019-03-25T04:21:00.968Z,100282.97
2019-03-25T04:23:29.422Z,100277.02
2019-03-25T04:25:58.696Z,100274.46
2019-03-25T04:28:27.650Z,100272.38
2019-03-25T04:30:56.109Z,100269.84
2019-03-25T04:33:24.645Z,100266.87
2019-03-25T04:35:53.152Z,100266.45
2019-03-25T04:38:21.593Z,100268.59
2019-03-25T04:40:50.049Z,100269.05
2019-03-25T04:43:18.492Z,100268.18
2019-03-25T04:45:46.926Z,100274.98
2019-03-25T04:48:15.397Z,100269.94
2019-03-25T04:50:43.859Z,100274.98
2019-03-25T04:53:12.289Z,100270.39
2019-03-25T04:55:40.763Z,100272.52
2019-03-25T04:58:09.273Z,100271.23
2019-03-25T05:00:38.246Z,100277.13
2019-03-25T05:03:07.031Z,100282.20
2019-03-25T05:05:36.212Z,100289.42
2019-03-25T05:08:05.059Z,100280.13
2019-03-25T05:10:33.589Z,100293.58
2019-03-25T05:13:02.094Z,100294.47
2019-03-25T05:15:30.568Z,100289.79
2019-03-25T05:17:59.003Z,100298.62
2019-03-25T05:20:27.435Z,100298.59
2019-03-25T05:22:55.945Z,100296.08
2019-03-25T05:25:24.406Z,100296.06
2019-03-25T05:27:52.827Z,100293.14
2019-03-25T05:30:22.989Z,100296.08
2019-03-25T05:32:51.556Z,100297.33
2019-03-25T05:35:20.013Z,100307.88
2019-03-25T05:37:48.457Z,100304.89
2019-03-25T05:40:16.897Z,100312.50
2019-03-25T05:42:45.357Z,100313.73
2019-03-25T05:45:13.955Z,100314.61
2019-03-25T05:47:42.396Z,100310.77
2019-03-25T05:50:11.111Z,100307.84
2019-03-25T05:52:39.528Z,100312.04
2019-03-25T05:55:08.540Z,100317.12
2019-03-25T05:57:36.981Z,100321.34
2019-03-25T06:00:06.600Z,100320.50
2019-03-25T06:02:35.104Z,100318.41
2019-03-25T06:05:04.290Z,100318.83
2019-03-25T06:07:32.745Z,100317.97
2019-03-25T06:10:01.706Z,100317.56
2019-03-25T06:12:30.145Z,100323.45
2019-03-25T06:14:58.598Z,100318.80
2019-03-25T06:17:27.150Z,100325.54
2019-03-25T06:19:55.596Z,100330.21
2019-03-25T06:22:24.115Z,100336.56
2019-03-25T06:24:52.689Z,100327.33
2019-03-25T06:27:21.133Z,100332.81
2019-03-25T06:29:49.686Z,100327.79
2019-03-25T06:32:18.130Z,100331.67
2019-03-25T06:34:46.795Z,100327.02
2019-03-25T06:37:15.532Z,100330.82
2019-03-25T06:39:43.995Z,100325.73
2019-03-25T06:42:12.405Z,100331.66
2019-03-25T06:44:41.031Z,100328.28
2019-03-25T06:47:09.497Z,100335.45
2019-03-25T06:49:37.936Z,100328.29
2019-03-25T06:52:06.416Z,100331.31
2019-03-25T06:54:34.847Z,100328.47
2019-03-25T06:57:03.315Z,100331.00
2019-03-25T06:59:31.765Z,100330.67
2019-03-25T07:02:00.211Z,100329.91
2019-03-25T07:04:28.731Z,100327.73
2019-03-25T07:06:57.175Z,100334.91
2019-03-25T07:09:25.634Z,100338.77
2019-03-25T07:11:54.063Z,100337.54
2019-03-25T07:14:22.630Z,100346.05
2019-03-25T07:16:51.104Z,100338.02
2019-03-25T07:19:19.555Z,100336.34
2019-03-25T07:21:48.080Z,100336.35
2019-03-25T07:24:16.615Z,100333.83
2019-03-25T07:26:45.057Z,100336.83
2019-03-25T07:29:13.526Z,100332.17
2019-03-25T07:31:41.996Z,100343.20
2019-03-25T07:34:10.439Z,100349.98
2019-03-25T07:36:38.879Z,100349.13
2019-03-25T07:39:07.689Z,100345.34
2019-03-25T07:41:36.226Z,100342.35
2019-03-25T07:44:04.690Z,100341.51
2019-03-25T07:46:33.118Z,100334.73
2019-03-25T07:49:01.638Z,100343.17
2019-03-25T07:51:30.216Z,100347.37
2019-03-25T07:53:58.688Z,100344.70
2019-03-25T07:56:27.134Z,100347.70
2019-03-25T07:58:55.569Z,100350.89
2019-03-25T08:01:23.996Z,100345.99
2019-03-25T08:03:52.501Z,100350.13
2019-03-25T08:06:20.904Z,100341.34
2019-03-25T08:08:49.493Z,100350.02
2019-03-25T08:11:18.083Z,100347.56
2019-03-25T08:13:46.482Z,100340.11
2019-03-25T08:16:15.009Z,100339.68
2019-03-25T08:18:43.445Z,100325.25
2019-03-25T08:21:11.885Z,100331.25
2019-03-25T08:23:40.412Z,100342.72
2019-03-25T08:26:08.839Z,100341.05
2019-03-25T08:28:37.270Z,100341.92
2019-03-25T08:31:05.717Z,100343.20
2019-03-25T08:33:34.153Z,100346.58
2019-03-25T08:36:02.702Z,100345.31
2019-03-25T08:38:31.244Z,100342.78
2019-03-25T08:40:59.839Z,100351.66
2019-03-25T08:43:28.335Z,100351.25
2019-03-25T08:45:56.830Z,100352.94
2019-03-25T08:48:25.392Z,100346.55
2019-03-25T08:50:53.932Z,100353.30
2019-03-25T08:53:22.358Z,100364.28
2019-03-25T08:55:50.847Z,100360.80
2019-03-25T08:58:19.261Z,100365.41
2019-03-25T09:00:47.704Z,100359.39
2019-03-25T09:03:16.200Z,100371.13
2019-03-25T09:05:44.624Z,100362.28
2019-03-25T09:08:13.063Z,100369.41
2019-03-25T09:10:41.543Z,100371.62
2019-03-25T09:13:10.041Z,100371.95
2019-03-25T09:15:38.563Z,100366.41
2019-03-25T09:18:07.088Z,100371.52
2019-03-25T09:20:35.509Z,100369.84
2019-03-25T09:23:04.074Z,100371.58
2019-03-25T09:25:32.496Z,100354.80
2019-03-25T09:28:01.399Z,100361.61
2019-03-25T09:30:52.682Z,100359.86
2019-03-25T09:33:21.698Z,100360.34
2019-03-25T09:35:50.418Z,100369.63
2019-03-25T09:38:18.895Z,100360.41
2019-03-25T09:40:47.395Z,100361.27
2019-03-25T09:43:15.889Z,100363.78
2019-03-25T09:45:44.448Z,100359.95
2019-03-25T09:48:12.951Z,100358.73
2019-03-25T09:50:41.430Z,100357.42
2019-03-25T09:53:09.951Z,100360.45
2019-03-25T09:55:38.436Z,100357.92
2019-03-25T09:58:07.014Z,100353.27
2019-03-25T10:00:35.518Z,100359.58
2019-03-25T10:03:04.103Z,100364.95
2019-03-25T10:05:32.651Z,100373.69
2019-03-25T10:08:01.126Z,100375.42
2019-03-25T10:10:29.552Z,100385.92
2019-03-25T10:12:58.134Z,100379.03
2019-03-25T10:15:26.672Z,100379.55
2019-03-25T10:17:55.109Z,100387.55
2019-03-25T10:20:23.538Z,100390.18
2019-03-25T10:22:52.059Z,100386.42
2019-03-25T10:25:20.540Z,100391.62
2019-03-25T10:27:50.515Z,100392.90
2019-03-25T10:30:19.139Z,100389.56
2019-03-25T10:32:47.685Z,100385.78
2019-03-25T10:35:16.334Z,100394.74
2019-03-25T10:37:45.298Z,100382.03
2019-03-25T10:40:14.964Z,100393.06
2019-03-25T10:42:43.461Z,100385.07
2019-03-25T10:45:13.939Z,100383.81
2019-03-25T10:47:42.455Z,100380.46
2019-03-25T10:50:11.246Z,100384.70
2019-03-25T10:52:39.742Z,100393.16
2019-03-25T10:55:09.242Z,100388.93
2019-03-25T10:57:37.726Z,100393.56
2019-03-25T11:00:08.764Z,100390.21
2019-03-25T11:02:37.325Z,100390.19
2019-03-25T11:05:07.661Z,100403.32
2019-03-25T11:07:36.422Z,100391.89
2019-03-25T11:10:09.015Z,100399.54
2019-03-25T11:12:37.554Z,100397.83
2019-03-25T11:15:07.926Z,100397.41
2019-03-25T11:17:36.352Z,100400.37
2019-03-25T11:20:09.345Z,100394.81
2019-03-25T11:22:37.847Z,100404.16
2019-03-25T11:25:07.735Z,100400.80
2019-03-25T11:27:36.346Z,100401.21
2019-03-25T11:30:10.578Z,100409.63
2019-03-25T11:32:39.104Z,100415.96
2019-03-25T11:35:09.843Z,100415.47
2019-03-25T11:37:38.322Z,100409.16
2019-03-25T11:40:10.886Z,100412.53
2019-03-25T11:42:39.338Z,100422.28
2019-03-25T11:45:10.329Z,100418.91
2019-03-25T11:47:38.863Z,100416.28
2019-03-25T11:50:08.618Z,100414.56
2019-03-25T11:52:37.159Z,100415.90
2019-03-25T11:55:07.246Z,100422.70
2019-03-25T11:57:35.689Z,100424.41
2019-03-25T12:00:07.983Z,100429.95
2019-03-25T12:02:36.999Z,100427.84
2019-03-25T12:05:07.365Z,100430.36
2019-03-25T12:07:35.909Z,100436.80
2019-03-25T12:10:06.473Z,100434.27
2019-03-25T12:12:35.001Z,100441.45
2019-03-25T12:15:04.707Z,100452.89
2019-03-25T12:17:33.134Z,100457.98
2019-03-25T12:20:01.653Z,100464.33
2019-03-25T12:22:30.185Z,100456.67
2019-03-25T12:24:58.728Z,100476.15
2019-03-25T12:27:27.248Z,100482.11
2019-03-25T12:29:55.731Z,100478.30
2019-03-25T12:32:24.168Z,100487.64
2019-03-25T12:34:52.601Z,100491.45
2019-03-25T12:37:21.065Z,100491.88
2019-03-25T12:39:51.012Z,100494.44
2019-03-25T12:42:19.497Z,100499.07
2019-03-25T12:44:47.955Z,100498.23
2019-03-25T12:47:16.583Z,100497.38
2019-03-25T12:49:45.170Z,100500.80
2019-03-25T12:52:13.679Z,100504.58
2019-03-25T12:54:42.114Z,100499.45
2019-03-25T12:57:10.581Z,100499.89
2019-03-25T12:59:41.437Z,100506.27
2019-03-25T13:02:09.193Z,100493.53
2019-03-25T13:04:37.647Z,100509.20
2019-03-25T13:07:06.149Z,100503.26
2019-03-25T13:09:34.628Z,100513.83
2019-03-25T13:12:05.164Z,100506.99
2019-03-25T13:14:35.166Z,100517.18
2019-03-25T13:17:03.923Z,100531.61
2019-03-25T13:19:32.354Z,100530.77
2019-03-25T13:22:00.936Z,100538.47
2019-03-25T13:24:29.748Z,100540.58
2019-03-25T13:26:58.305Z,100537.18
2019-03-25T13:29:27.095Z,100542.27
2019-03-25T13:31:55.571Z,100540.16
2019-03-25T13:34:24.079Z,100545.21
2019-03-25T13:36:52.525Z,100556.26
2019-03-25T13:39:21.029Z,100555.37
2019-03-25T13:41:49.563Z,100565.52
2019-03-25T13:44:18.888Z,100551.95
2019-03-25T13:46:49.222Z,100567.23
2019-03-25T13:49:17.643Z,100564.23
2019-03-25T13:51:46.070Z,100568.45
2019-03-25T13:54:14.706Z,100572.70
2019-03-25T13:56:43.177Z,100567.21
2019-03-25T13:59:11.742Z,100568.09
2019-03-25T14:01:40.147Z,100571.02
2019-03-25T14:04:08.626Z,100574.02
2019-03-25T14:06:37.056Z,100581.23
2019-03-25T14:09:07.665Z,100590.97
2019-03-25T14:11:36.203Z,100597.80
2019-03-25T14:14:04.808Z,100591.92
2019-03-25T14:16:33.360Z,100598.72
2019-03-25T14:19:01.857Z,100605.10
2019-03-25T14:21:30.294Z,100608.48
2019-03-25T14:23:58.727Z,100602.97
2019-03-25T14:26:27.203Z,100603.40
2019-03-25T14:28:57.171Z,100606.78
2019-03-25T14:31:25.612Z,100605.08
2019-03-25T14:33:54.066Z,100605.08
2019-03-25T14:36:22.508Z,100602.53
2019-03-25T14:38:50.949Z,100615.69
2019-03-25T14:41:19.401Z,100611.88
2019-03-25T14:43:47.901Z,100617.82
2019-03-25T14:46:16.443Z,100616.97
2019-03-25T14:48:44.936Z,100622.47
2019-03-25T14:51:13.389Z,100630.09
2019-03-25T14:53:45.267Z,100635.17
2019-03-25T14:56:12.087Z,100647.89
2019-03-25T14:58:40.660Z,100646.61
2019-03-25T15:01:11.829Z,100653.83
2019-03-25T15:03:40.343Z,100653.80
2019-03-25T15:06:08.804Z,100664.00
2019-03-25T15:08:37.351Z,100668.64
2019-03-25T15:11:05.864Z,100672.46
2019-03-25T15:13:34.302Z,100681.83
2019-03-25T15:16:02.740Z,100681.83
2019-03-25T15:18:31.202Z,100684.77
2019-03-25T15:21:02.778Z,100692.81
2019-03-25T15:23:31.208Z,100697.47
2019-03-25T15:25:59.834Z,100703.30
2019-03-25T15:28:28.336Z,100707.88
2019-03-25T15:30:56.856Z,100712.09
2019-03-25T15:33:25.280Z,100708.67
2019-03-25T15:35:53.707Z,100709.45
2019-03-25T15:38:22.166Z,100721.73
2019-03-25T15:40:50.664Z,100720.02
2019-03-25T15:43:19.169Z,100721.29
2019-03-25T15:45:47.680Z,100727.69
2019-03-25T15:48:16.581Z,100723.58
2019-03-25T15:50:45.046Z,100730.34
2019-03-25T15:53:13.498Z,100736.77
2019-03-25T15:55:41.946Z,100748.20
2019-03-25T15:58:10.411Z,100757.55
2019-03-25T16:00:47.582Z,100753.70
2019-03-25T16:03:09.062Z,100757.46
2019-03-25T16:05:37.516Z,100760.89
2019-03-25T16:08:05.988Z,100768.41
2019-03-25T16:10:34.362Z,100773.55
2019-03-25T16:13:02.868Z,100773.14
2019-03-25T16:15:42.429Z,100773.97
2019-03-25T16:18:12.520Z,100798.52
2019-03-25T16:20:40.975Z,100798.49
2019-03-25T16:23:09.462Z,100802.69
2019-03-25T16:25:37.964Z,100811.99
2019-03-25T16:28:06.445Z,100813.72
2019-03-25T16:30:34.901Z,100818.34
2019-03-25T16:33:03.902Z,100819.66
2019-03-25T16:35:32.423Z,100822.58
2019-03-25T16:38:01.725Z,100832.40
2019-03-25T16:40:30.209Z,100837.89
2019-03-25T16:42:58.626Z,100839.61
2019-03-25T16:45:27.079Z,100841.31
2019-03-25T16:47:55.544Z,100850.14
2019-03-25T16:50:24.049Z,100855.65
2019-03-25T16:52:52.476Z,100864.55
2019-03-25T16:55:20.924Z,100872.62
2019-03-25T16:57:49.387Z,100878.52
2019-03-25T17:00:26.834Z,100875.97
2019-03-25T17:02:48.067Z,100887.41
2019-03-25T17:05:16.528Z,100887.41
2019-03-25T17:07:44.946Z,100888.27
2019-03-25T17:10:13.645Z,100897.58
2019-03-25T17:12:42.069Z,100902.61
2019-03-25T17:15:10.997Z,100900.55
2019-03-25T17:17:39.526Z,100909.92
2019-03-25T17:20:08.047Z,100910.73
2019-03-25T17:22:36.557Z,100915.42
2019-03-25T17:25:09.133Z,100920.86
2019-03-25T17:27:37.611Z,100919.99
2019-03-25T17:30:17.745Z,100917.81
2019-03-25T17:32:46.210Z,100926.70
2019-03-25T17:35:14.772Z,100929.99
2019-03-25T17:37:43.189Z,100945.12
2019-03-25T17:40:11.696Z,100949.77
2019-03-25T17:42:40.193Z,100961.66
2019-03-25T17:45:09.529Z,100957.73
2019-03-25T17:47:37.980Z,100970.84
2019-03-25T17:50:09.948Z,100979.75
2019-03-25T17:52:38.695Z,100975.46
2019-03-25T17:55:08.872Z,100989.47
2019-03-25T17:57:37.343Z,100994.03
2019-03-25T18:00:08.379Z,101001.67
2019-03-25T18:02:36.910Z,101009.14
2019-03-25T18:05:08.280Z,101014.33
2019-03-25T18:07:36.742Z,101023.83
2019-03-25T18:10:08.803Z,101026.08
2019-03-25T18:12:39.088Z,101023.02
2019-03-25T18:15:11.899Z,101022.91
2019-03-25T18:17:40.458Z,101033.86
2019-03-25T18:20:18.066Z,101032.91
2019-03-25T18:22:40.166Z,101037.59
2019-03-25T18:25:12.540Z,101042.58
2019-03-25T18:27:40.995Z,101051.94
2019-03-25T18:30:11.534Z,101053.61
2019-03-25T18:32:39.974Z,101051.83
2019-03-25T18:35:16.034Z,101061.63
2019-03-25T18:37:44.474Z,101062.92
2019-03-25T18:40:12.988Z,101060.78
2019-03-25T18:42:41.449Z,101075.17
2019-03-25T18:45:09.980Z,101080.68
2019-03-25T18:47:38.495Z,101082.38
2019-03-25T18:50:08.219Z,101084.48
2019-03-25T18:52:36.639Z,101089.99
2019-03-25T18:55:07.082Z,101093.38
2019-03-25T18:57:35.729Z,101098.48
2019-03-25T19:00:06.962Z,101102.70
2019-03-25T19:02:35.499Z,101104.42
2019-03-25T19:05:07.263Z,101108.25
2019-03-25T19:14:47.057Z,101115.06
2019-03-25T19:17:15.510Z,101118.78
2019-03-25T19:19:43.965Z,101123.02
2019-03-25T19:22:13.001Z,101125.56
2019-03-25T19:46:11.803Z,101178.48
2019-03-25T19:48:40.372Z,101178.30
2019-03-25T19:51:09.072Z,101187.67
2019-03-25T19:53:37.984Z,101194.02
2019-03-25T19:56:06.415Z,101196.11
2019-03-25T19:58:35.188Z,101200.34
2019-03-25T20:01:03.864Z,101202.07
2019-03-25T20:03:33.125Z,101201.59
2019-03-25T20:06:02.247Z,101207.94
2019-03-25T20:08:30.927Z,101212.59
2019-03-25T20:10:59.694Z,101212.99
2019-03-25T20:13:28.807Z,101214.62
2019-03-25T20:15:57.684Z,101221.83
2019-03-25T20:18:26.175Z,101229.45
2019-03-25T20:20:54.781Z,101234.53
2019-03-25T20:23:23.275Z,101239.58
2019-03-25T20:25:51.740Z,101242.97
2019-03-25T20:28:20.171Z,101244.66
2019-03-25T20:30:48.786Z,101248.47
2019-03-25T20:33:17.162Z,101262.91
2019-03-25T20:35:45.736Z,101266.63
2019-03-25T20:38:14.163Z,101272.97
2019-03-25T20:40:42.685Z,101274.66
2019-03-25T20:43:11.113Z,101278.41
2019-03-25T20:45:39.667Z,101284.83
2019-03-25T20:48:08.131Z,101282.25
2019-03-25T20:50:36.602Z,101281.98
2019-03-25T20:53:05.076Z,101292.46
2019-03-25T20:55:33.495Z,101293.20
2019-03-25T20:58:01.946Z,101297.78
2019-03-25T21:00:51.568Z,101304.23
2019-03-25T21:03:20.139Z,101306.74
2019-03-25T21:05:46.219Z,101308.29
2019-03-25T21:08:12.143Z,101312.17
2019-03-25T21:10:38.013Z,101313.05
2019-03-25T21:13:04.058Z,101312.63
2019-03-25T21:15:29.888Z,101319.33
2019-03-25T21:17:55.760Z,101309.63
2019-03-25T21:20:21.710Z,101313.86
2019-03-25T21:22:48.117Z,101320.48
2019-03-25T21:25:13.964Z,101324.67
2019-03-25T21:27:39.906Z,101329.80
2019-03-25T21:30:07.679Z,101337.22
2019-03-25T21:32:33.650Z,101349.52
2019-03-25T21:34:59.546Z,101346.91
2019-03-25T21:37:25.447Z,101359.52
2019-03-25T21:39:51.281Z,101366.24
2019-03-25T21:42:17.164Z,101367.55
2019-03-25T21:44:43.021Z,101366.63
2019-03-25T21:47:08.914Z,101363.70
2019-03-25T21:49:34.945Z,101362.44
2019-03-25T21:52:00.829Z,101367.52
2019-03-25T21:54:26.853Z,101372.58
2019-03-25T21:56:52.792Z,101381.01
2019-03-25T21:59:18.737Z,101378.38
2019-03-25T22:01:44.676Z,101384.81
2019-03-25T22:04:10.502Z,101383.50
2019-03-25T22:06:36.350Z,101380.88
2019-03-25T22:09:04.194Z,101387.39
2019-03-25T22:11:30.003Z,101394.10
2019-03-25T22:13:55.861Z,101391.44
2019-03-25T22:16:21.704Z,101398.45
2019-03-25T22:18:47.542Z,101398.11
2019-03-25T22:21:13.387Z,101398.77
2019-03-25T22:23:39.227Z,101406.62
2019-03-25T22:26:05.149Z,101415.11
2019-03-25T22:28:30.996Z,101421.04
2019-03-25T22:30:56.921Z,101418.02
2019-03-25T22:33:26.185Z,101422.77
2019-03-25T22:35:50.533Z,101420.91
2019-03-25T22:38:16.343Z,101424.16
2019-03-25T22:40:42.168Z,101416.92
2019-03-25T22:43:08.011Z,101422.78
2019-03-25T22:45:33.903Z,101413.28
2019-03-25T22:47:59.763Z,101422.67
2019-03-25T22:50:30.457Z,101423.74
2019-03-25T22:52:56.378Z,101429.60
2019-03-25T22:55:23.545Z,101432.70
2019-03-25T22:57:49.746Z,101436.30
2019-03-25T23:00:19.386Z,101429.17
2019-03-25T23:02:45.206Z,101431.77
2019-03-25T23:05:11.259Z,101433.81
2019-03-25T23:07:37.117Z,101438.80
2019-03-25T23:10:03.651Z,101435.88
2019-03-25T23:12:29.538Z,101439.15
2019-03-25T23:14:55.393Z,101444.28
2019-03-25T23:17:21.294Z,101449.50
2019-03-25T23:19:47.164Z,101441.06
2019-03-25T23:22:12.979Z,101447.91
2019-03-25T23:24:38.848Z,101456.27
2019-03-25T23:27:04.703Z,101460.41
2019-03-25T23:29:31.480Z,101460.16
2019-03-25T23:31:57.544Z,101463.59
2019-03-25T23:34:23.412Z,101466.05
2019-03-25T23:36:49.227Z,101465.57
2019-03-25T23:39:15.251Z,101463.89
2019-03-25T23:41:41.106Z,101466.84
2019-03-25T23:44:07.037Z,101466.94
2019-03-25T23:46:32.979Z,101463.67
2019-03-25T23:48:58.795Z,101460.54
2019-03-25T23:51:24.630Z,101464.63
2019-03-25T23:53:52.376Z,101467.48
2019-03-25T23:56:18.887Z,101462.30
2019-03-25T23:58:45.138Z,101466.52
